sensor_id;sensor_type;location;lat;lon;timestamp;P1;durP1;ratioP1;P2;durP2;ratioP2
72611;SDS011;60655;52.182;4.474;2023-12-22T00:03:17;11.10;;;1.42;;
72611;SDS011;60655;52.182;4.474;2023-12-22T00:07:19;13.82;;;1.67;;
72611;SDS011;60655;52.182;4.474;2023-12-22T00:09:20;23.55;;;2.40;;
72611;SDS011;60655;52.182;4.474;2023-12-22T00:13:22;11.60;;;1.30;;
72611;SDS011;60655;52.182;4.474;2023-12-22T00:15:23;11.15;;;1.90;;
72611;SDS011;60655;52.182;4.474;2023-12-22T00:19:25;14.48;;;1.77;;
72611;SDS011;60655;52.182;4.474;2023-12-22T00:23:28;14.20;;;1.75;;
72611;SDS011;60655;52.182;4.474;2023-12-22T00:27:29;12.75;;;1.58;;
72611;SDS011;60655;52.182;4.474;2023-12-22T00:31:31;18.52;;;2.00;;
72611;SDS011;60655;52.182;4.474;2023-12-22T00:35:33;6.15;;;1.25;;
72611;SDS011;60655;52.182;4.474;2023-12-22T00:37:36;15.68;;;2.65;;
72611;SDS011;60655;52.182;4.474;2023-12-22T00:39:37;12.88;;;1.30;;
72611;SDS011;60655;52.182;4.474;2023-12-22T00:41:38;12.15;;;1.38;;
72611;SDS011;60655;52.182;4.474;2023-12-22T00:45:40;18.30;;;1.88;;
72611;SDS011;60655;52.182;4.474;2023-12-22T00:49:41;10.10;;;2.00;;
72611;SDS011;60655;52.182;4.474;2023-12-22T00:53:43;11.35;;;1.65;;
72611;SDS011;60655;52.182;4.474;2023-12-22T00:57:45;14.98;;;1.98;;
72611;SDS011;60655;52.182;4.474;2023-12-22T01:01:48;15.13;;;2.33;;
72611;SDS011;60655;52.182;4.474;2023-12-22T01:05:50;10.18;;;1.55;;
72611;SDS011;60655;52.182;4.474;2023-12-22T01:07:51;13.98;;;1.45;;
72611;SDS011;60655;52.182;4.474;2023-12-22T01:11:52;14.35;;;1.75;;
72611;SDS011;60655;52.182;4.474;2023-12-22T01:15:54;13.18;;;2.05;;
72611;SDS011;60655;52.182;4.474;2023-12-22T01:17:55;16.35;;;1.95;;
72611;SDS011;60655;52.182;4.474;2023-12-22T01:21:57;13.65;;;1.50;;
72611;SDS011;60655;52.182;4.474;2023-12-22T01:25:59;13.82;;;1.67;;
72611;SDS011;60655;52.182;4.474;2023-12-22T01:28:01;22.17;;;2.22;;
72611;SDS011;60655;52.182;4.474;2023-12-22T01:32:03;9.73;;;1.48;;
72611;SDS011;60655;52.182;4.474;2023-12-22T01:34:05;16.13;;;2.08;;
72611;SDS011;60655;52.182;4.474;2023-12-22T01:38:10;9.07;;;2.15;;
72611;SDS011;60655;52.182;4.474;2023-12-22T01:40:10;9.32;;;1.55;;
72611;SDS011;60655;52.182;4.474;2023-12-22T01:44:12;9.18;;;1.17;;
72611;SDS011;60655;52.182;4.474;2023-12-22T01:46:13;27.27;;;2.42;;
72611;SDS011;60655;52.182;4.474;2023-12-22T01:48:15;13.80;;;2.03;;
72611;SDS011;60655;52.182;4.474;2023-12-22T01:50:16;13.38;;;1.25;;
72611;SDS011;60655;52.182;4.474;2023-12-22T01:52:18;10.10;;;1.58;;
72611;SDS011;60655;52.182;4.474;2023-12-22T01:54:19;16.02;;;2.42;;
72611;SDS011;60655;52.182;4.474;2023-12-22T01:58:24;11.43;;;2.10;;
72611;SDS011;60655;52.182;4.474;2023-12-22T02:00:27;12.93;;;1.73;;
72611;SDS011;60655;52.182;4.474;2023-12-22T02:02:28;9.85;;;1.50;;
72611;SDS011;60655;52.182;4.474;2023-12-22T02:04:30;17.48;;;2.00;;
72611;SDS011;60655;52.182;4.474;2023-12-22T02:06:32;17.10;;;1.95;;
72611;SDS011;60655;52.182;4.474;2023-12-22T02:08:36;17.70;;;2.17;;
72611;SDS011;60655;52.182;4.474;2023-12-22T02:10:37;22.08;;;1.98;;
72611;SDS011;60655;52.182;4.474;2023-12-22T02:12:39;30.73;;;2.92;;
72611;SDS011;60655;52.182;4.474;2023-12-22T02:18:44;8.02;;;1.25;;
72611;SDS011;60655;52.182;4.474;2023-12-22T02:20:51;8.98;;;1.15;;
72611;SDS011;60655;52.182;4.474;2023-12-22T02:22:53;20.27;;;2.35;;
72611;SDS011;60655;52.182;4.474;2023-12-22T02:24:54;16.33;;;2.03;;
72611;SDS011;60655;52.182;4.474;2023-12-22T02:28:57;16.48;;;2.08;;
72611;SDS011;60655;52.182;4.474;2023-12-22T02:31:04;10.65;;;2.08;;
72611;SDS011;60655;52.182;4.474;2023-12-22T02:33:16;19.10;;;2.05;;
72611;SDS011;60655;52.182;4.474;2023-12-22T02:35:19;13.85;;;1.77;;
72611;SDS011;60655;52.182;4.474;2023-12-22T02:37:22;11.82;;;1.77;;
72611;SDS011;60655;52.182;4.474;2023-12-22T02:39:23;14.93;;;2.22;;
72611;SDS011;60655;52.182;4.474;2023-12-22T02:43:26;10.48;;;1.40;;
72611;SDS011;60655;52.182;4.474;2023-12-22T02:45:28;22.88;;;2.42;;
72611;SDS011;60655;52.182;4.474;2023-12-22T02:47:30;17.42;;;2.10;;
72611;SDS011;60655;52.182;4.474;2023-12-22T02:49:33;13.82;;;2.22;;
72611;SDS011;60655;52.182;4.474;2023-12-22T02:53:35;12.32;;;2.47;;
72611;SDS011;60655;52.182;4.474;2023-12-22T02:57:37;21.33;;;2.33;;
72611;SDS011;60655;52.182;4.474;2023-12-22T03:01:41;18.52;;;2.10;;
72611;SDS011;60655;52.182;4.474;2023-12-22T03:05:42;13.90;;;1.85;;
72611;SDS011;60655;52.182;4.474;2023-12-22T03:09:44;6.80;;;1.33;;
72611;SDS011;60655;52.182;4.474;2023-12-22T03:11:46;20.63;;;1.90;;
72611;SDS011;60655;52.182;4.474;2023-12-22T03:15:47;14.75;;;1.50;;
72611;SDS011;60655;52.182;4.474;2023-12-22T03:19:49;9.95;;;1.67;;
72611;SDS011;60655;52.182;4.474;2023-12-22T03:23:51;26.00;;;2.05;;
72611;SDS011;60655;52.182;4.474;2023-12-22T03:27:52;7.90;;;1.20;;
72611;SDS011;60655;52.182;4.474;2023-12-22T03:31:55;11.60;;;1.85;;
72611;SDS011;60655;52.182;4.474;2023-12-22T03:35:56;15.63;;;2.33;;
72611;SDS011;60655;52.182;4.474;2023-12-22T03:39:59;8.63;;;1.65;;
72611;SDS011;60655;52.182;4.474;2023-12-22T03:41:59;17.25;;;1.90;;
72611;SDS011;60655;52.182;4.474;2023-12-22T03:46:01;15.88;;;2.20;;
72611;SDS011;60655;52.182;4.474;2023-12-22T03:48:03;13.10;;;1.85;;
72611;SDS011;60655;52.182;4.474;2023-12-22T03:50:05;16.30;;;2.17;;
72611;SDS011;60655;52.182;4.474;2023-12-22T03:52:07;14.50;;;2.25;;
72611;SDS011;60655;52.182;4.474;2023-12-22T03:56:09;6.13;;;1.40;;
72611;SDS011;60655;52.182;4.474;2023-12-22T03:58:10;26.70;;;2.38;;
72611;SDS011;60655;52.182;4.474;2023-12-22T04:02:12;14.48;;;1.42;;
72611;SDS011;60655;52.182;4.474;2023-12-22T04:06:13;10.50;;;1.48;;
72611;SDS011;60655;52.182;4.474;2023-12-22T04:10:18;15.57;;;2.00;;
72611;SDS011;60655;52.182;4.474;2023-12-22T04:12:29;15.10;;;1.42;;
72611;SDS011;60655;52.182;4.474;2023-12-22T04:14:30;14.40;;;1.55;;
72611;SDS011;60655;52.182;4.474;2023-12-22T04:18:35;22.35;;;1.88;;
72611;SDS011;60655;52.182;4.474;2023-12-22T04:20:36;7.53;;;1.73;;
72611;SDS011;60655;52.182;4.474;2023-12-22T04:22:37;17.25;;;1.70;;
72611;SDS011;60655;52.182;4.474;2023-12-22T04:26:39;10.50;;;1.52;;
72611;SDS011;60655;52.182;4.474;2023-12-22T04:28:40;11.00;;;1.60;;
72611;SDS011;60655;52.182;4.474;2023-12-22T04:32:42;15.10;;;1.73;;
72611;SDS011;60655;52.182;4.474;2023-12-22T04:34:43;12.30;;;1.70;;
72611;SDS011;60655;52.182;4.474;2023-12-22T04:38:45;14.07;;;1.95;;
72611;SDS011;60655;52.182;4.474;2023-12-22T04:40:48;13.98;;;1.77;;
72611;SDS011;60655;52.182;4.474;2023-12-22T04:42:49;17.92;;;1.98;;
72611;SDS011;60655;52.182;4.474;2023-12-22T04:44:53;13.75;;;2.17;;
72611;SDS011;60655;52.182;4.474;2023-12-22T04:46:54;10.82;;;1.40;;
72611;SDS011;60655;52.182;4.474;2023-12-22T04:50:56;7.45;;;1.40;;
72611;SDS011;60655;52.182;4.474;2023-12-22T04:54:58;7.90;;;1.48;;
72611;SDS011;60655;52.182;4.474;2023-12-22T04:56:59;20.48;;;2.20;;
72611;SDS011;60655;52.182;4.474;2023-12-22T04:59:00;11.80;;;1.85;;
72611;SDS011;60655;52.182;4.474;2023-12-22T05:03:01;10.95;;;1.48;;
72611;SDS011;60655;52.182;4.474;2023-12-22T05:05:03;12.75;;;1.65;;
72611;SDS011;60655;52.182;4.474;2023-12-22T05:07:05;18.77;;;1.85;;
72611;SDS011;60655;52.182;4.474;2023-12-22T05:09:07;12.77;;;2.28;;
72611;SDS011;60655;52.182;4.474;2023-12-22T05:11:08;14.55;;;1.65;;
72611;SDS011;60655;52.182;4.474;2023-12-22T05:13:11;16.08;;;2.67;;
72611;SDS011;60655;52.182;4.474;2023-12-22T05:15:12;20.95;;;2.22;;
72611;SDS011;60655;52.182;4.474;2023-12-22T05:19:14;16.30;;;1.73;;
72611;SDS011;60655;52.182;4.474;2023-12-22T05:23:16;15.43;;;1.80;;
72611;SDS011;60655;52.182;4.474;2023-12-22T05:27:18;12.50;;;1.70;;
72611;SDS011;60655;52.182;4.474;2023-12-22T05:29:19;17.55;;;1.65;;
72611;SDS011;60655;52.182;4.474;2023-12-22T05:31:20;15.30;;;1.73;;
72611;SDS011;60655;52.182;4.474;2023-12-22T05:33:21;17.38;;;2.40;;
72611;SDS011;60655;52.182;4.474;2023-12-22T05:37:22;11.15;;;2.25;;
72611;SDS011;60655;52.182;4.474;2023-12-22T05:41:24;13.10;;;1.73;;
72611;SDS011;60655;52.182;4.474;2023-12-22T05:45:26;21.65;;;2.15;;
72611;SDS011;60655;52.182;4.474;2023-12-22T05:49:27;18.10;;;2.17;;
72611;SDS011;60655;52.182;4.474;2023-12-22T05:51:28;17.90;;;2.35;;
72611;SDS011;60655;52.182;4.474;2023-12-22T05:55:30;14.40;;;2.10;;
72611;SDS011;60655;52.182;4.474;2023-12-22T05:57:31;21.50;;;2.88;;
72611;SDS011;60655;52.182;4.474;2023-12-22T06:01:33;20.17;;;2.90;;
72611;SDS011;60655;52.182;4.474;2023-12-22T06:05:35;20.80;;;3.33;;
72611;SDS011;60655;52.182;4.474;2023-12-22T06:07:36;20.27;;;2.25;;
72611;SDS011;60655;52.182;4.474;2023-12-22T06:11:38;16.08;;;2.55;;
72611;SDS011;60655;52.182;4.474;2023-12-22T06:13:40;23.10;;;2.97;;
72611;SDS011;60655;52.182;4.474;2023-12-22T06:15:41;17.10;;;2.10;;
72611;SDS011;60655;52.182;4.474;2023-12-22T06:19:42;25.65;;;2.38;;
72611;SDS011;60655;52.182;4.474;2023-12-22T06:23:44;22.80;;;3.33;;
72611;SDS011;60655;52.182;4.474;2023-12-22T06:27:46;20.60;;;3.35;;
72611;SDS011;60655;52.182;4.474;2023-12-22T06:29:47;31.27;;;3.60;;
72611;SDS011;60655;52.182;4.474;2023-12-22T06:31:48;25.33;;;3.58;;
72611;SDS011;60655;52.182;4.474;2023-12-22T06:33:51;26.42;;;3.00;;
72611;SDS011;60655;52.182;4.474;2023-12-22T06:35:53;29.85;;;3.22;;
72611;SDS011;60655;52.182;4.474;2023-12-22T06:37:54;24.48;;;3.33;;
72611;SDS011;60655;52.182;4.474;2023-12-22T06:39:56;24.00;;;3.33;;
72611;SDS011;60655;52.182;4.474;2023-12-22T06:41:58;24.45;;;3.72;;
72611;SDS011;60655;52.182;4.474;2023-12-22T06:43:59;29.05;;;4.35;;
72611;SDS011;60655;52.182;4.474;2023-12-22T06:46:03;24.08;;;3.70;;
72611;SDS011;60655;52.182;4.474;2023-12-22T06:48:04;36.65;;;3.55;;
72611;SDS011;60655;52.182;4.474;2023-12-22T06:50:05;22.33;;;3.28;;
72611;SDS011;60655;52.182;4.474;2023-12-22T06:52:06;31.88;;;4.15;;
72611;SDS011;60655;52.182;4.474;2023-12-22T06:54:07;28.98;;;4.10;;
72611;SDS011;60655;52.182;4.474;2023-12-22T06:56:19;28.75;;;3.03;;
72611;SDS011;60655;52.182;4.474;2023-12-22T06:58:22;25.80;;;3.40;;
72611;SDS011;60655;52.182;4.474;2023-12-22T07:00:26;27.60;;;4.30;;
72611;SDS011;60655;52.182;4.474;2023-12-22T07:02:27;27.08;;;3.28;;
72611;SDS011;60655;52.182;4.474;2023-12-22T07:06:29;19.23;;;2.90;;
72611;SDS011;60655;52.182;4.474;2023-12-22T07:08:33;30.75;;;3.50;;
72611;SDS011;60655;52.182;4.474;2023-12-22T07:12:35;23.20;;;3.33;;
72611;SDS011;60655;52.182;4.474;2023-12-22T07:14:36;35.25;;;3.60;;
72611;SDS011;60655;52.182;4.474;2023-12-22T07:16:37;32.80;;;3.17;;
72611;SDS011;60655;52.182;4.474;2023-12-22T07:18:38;22.52;;;2.85;;
72611;SDS011;60655;52.182;4.474;2023-12-22T07:20:39;25.77;;;3.15;;
72611;SDS011;60655;52.182;4.474;2023-12-22T07:22:40;25.08;;;2.88;;
72611;SDS011;60655;52.182;4.474;2023-12-22T07:26:42;28.90;;;3.80;;
72611;SDS011;60655;52.182;4.474;2023-12-22T07:28:44;30.40;;;3.28;;
72611;SDS011;60655;52.182;4.474;2023-12-22T07:30:45;21.70;;;2.95;;
72611;SDS011;60655;52.182;4.474;2023-12-22T07:34:52;25.30;;;3.08;;
72611;SDS011;60655;52.182;4.474;2023-12-22T07:38:53;19.52;;;3.28;;
72611;SDS011;60655;52.182;4.474;2023-12-22T07:40:57;19.42;;;2.47;;
72611;SDS011;60655;52.182;4.474;2023-12-22T07:42:59;18.45;;;2.95;;
72611;SDS011;60655;52.182;4.474;2023-12-22T07:45:00;18.45;;;3.13;;
72611;SDS011;60655;52.182;4.474;2023-12-22T07:49:02;32.28;;;3.67;;
72611;SDS011;60655;52.182;4.474;2023-12-22T07:53:04;27.48;;;3.55;;
72611;SDS011;60655;52.182;4.474;2023-12-22T07:57:11;18.92;;;2.78;;
72611;SDS011;60655;52.182;4.474;2023-12-22T08:01:12;28.35;;;3.00;;
72611;SDS011;60655;52.182;4.474;2023-12-22T08:03:15;14.00;;;2.03;;
72611;SDS011;60655;52.182;4.474;2023-12-22T08:07:17;28.00;;;3.17;;
72611;SDS011;60655;52.182;4.474;2023-12-22T08:09:18;20.15;;;2.40;;
72611;SDS011;60655;52.182;4.474;2023-12-22T08:11:20;23.63;;;2.47;;
72611;SDS011;60655;52.182;4.474;2023-12-22T08:15:21;12.88;;;1.52;;
72611;SDS011;60655;52.182;4.474;2023-12-22T08:19:23;18.20;;;2.22;;
72611;SDS011;60655;52.182;4.474;2023-12-22T08:23:24;29.20;;;3.55;;
72611;SDS011;60655;52.182;4.474;2023-12-22T08:27:26;18.65;;;2.45;;
72611;SDS011;60655;52.182;4.474;2023-12-22T08:31:28;17.52;;;2.20;;
72611;SDS011;60655;52.182;4.474;2023-12-22T08:35:29;17.77;;;2.75;;
72611;SDS011;60655;52.182;4.474;2023-12-22T08:37:31;11.48;;;1.77;;
72611;SDS011;60655;52.182;4.474;2023-12-22T08:41:32;20.33;;;1.98;;
72611;SDS011;60655;52.182;4.474;2023-12-22T08:43:37;11.57;;;1.63;;
72611;SDS011;60655;52.182;4.474;2023-12-22T08:45:40;10.80;;;2.13;;
72611;SDS011;60655;52.182;4.474;2023-12-22T08:49:42;12.88;;;2.45;;
72611;SDS011;60655;52.182;4.474;2023-12-22T08:53:43;13.90;;;2.05;;
72611;SDS011;60655;52.182;4.474;2023-12-22T08:57:45;11.27;;;2.03;;
72611;SDS011;60655;52.182;4.474;2023-12-22T09:01:46;11.07;;;1.92;;
72611;SDS011;60655;52.182;4.474;2023-12-22T09:05:48;9.05;;;1.70;;
72611;SDS011;60655;52.182;4.474;2023-12-22T09:09:50;5.95;;;1.17;;
72611;SDS011;60655;52.182;4.474;2023-12-22T09:13:52;11.88;;;1.55;;
72611;SDS011;60655;52.182;4.474;2023-12-22T09:17:54;8.63;;;1.38;;
72611;SDS011;60655;52.182;4.474;2023-12-22T09:19:56;11.73;;;1.75;;
72611;SDS011;60655;52.182;4.474;2023-12-22T09:23:58;9.98;;;1.15;;
72611;SDS011;60655;52.182;4.474;2023-12-22T09:27:59;7.43;;;1.10;;
72611;SDS011;60655;52.182;4.474;2023-12-22T09:32:01;8.65;;;1.52;;
72611;SDS011;60655;52.182;4.474;2023-12-22T09:34:02;13.35;;;1.35;;
72611;SDS011;60655;52.182;4.474;2023-12-22T09:36:03;13.57;;;1.63;;
72611;SDS011;60655;52.182;4.474;2023-12-22T09:38:05;13.48;;;1.70;;
72611;SDS011;60655;52.182;4.474;2023-12-22T09:40:06;9.15;;;1.20;;
72611;SDS011;60655;52.182;4.474;2023-12-22T09:42:10;10.05;;;1.67;;
72611;SDS011;60655;52.182;4.474;2023-12-22T09:44:11;10.02;;;1.35;;
72611;SDS011;60655;52.182;4.474;2023-12-22T09:46:13;15.40;;;1.65;;
72611;SDS011;60655;52.182;4.474;2023-12-22T09:48:15;8.55;;;1.33;;
72611;SDS011;60655;52.182;4.474;2023-12-22T09:50:18;12.85;;;1.63;;
72611;SDS011;60655;52.182;4.474;2023-12-22T09:52:20;8.80;;;1.65;;
72611;SDS011;60655;52.182;4.474;2023-12-22T09:54:21;10.63;;;1.67;;
72611;SDS011;60655;52.182;4.474;2023-12-22T09:56:23;11.18;;;1.65;;
72611;SDS011;60655;52.182;4.474;2023-12-22T09:58:25;10.70;;;1.42;;
72611;SDS011;60655;52.182;4.474;2023-12-22T10:00:26;11.80;;;1.77;;
72611;SDS011;60655;52.182;4.474;2023-12-22T10:02:28;13.63;;;1.52;;
72611;SDS011;60655;52.182;4.474;2023-12-22T10:04:31;14.23;;;1.80;;
72611;SDS011;60655;52.182;4.474;2023-12-22T10:06:32;13.55;;;2.40;;
72611;SDS011;60655;52.182;4.474;2023-12-22T10:08:33;15.50;;;1.70;;
72611;SDS011;60655;52.182;4.474;2023-12-22T10:10:34;20.13;;;1.88;;
72611;SDS011;60655;52.182;4.474;2023-12-22T10:12:35;15.85;;;1.60;;
72611;SDS011;60655;52.182;4.474;2023-12-22T10:14:38;14.77;;;2.10;;
72611;SDS011;60655;52.182;4.474;2023-12-22T10:16:40;10.82;;;1.70;;
72611;SDS011;60655;52.182;4.474;2023-12-22T10:18:41;10.07;;;1.48;;
72611;SDS011;60655;52.182;4.474;2023-12-22T10:20:42;16.38;;;1.92;;
72611;SDS011;60655;52.182;4.474;2023-12-22T10:22:45;12.77;;;2.28;;
72611;SDS011;60655;52.182;4.474;2023-12-22T10:24:47;14.15;;;1.98;;
72611;SDS011;60655;52.182;4.474;2023-12-22T10:26:48;16.00;;;2.90;;
72611;SDS011;60655;52.182;4.474;2023-12-22T10:28:49;12.45;;;1.60;;
72611;SDS011;60655;52.182;4.474;2023-12-22T10:30:51;15.05;;;1.67;;
72611;SDS011;60655;52.182;4.474;2023-12-22T10:32:53;14.98;;;1.83;;
72611;SDS011;60655;52.182;4.474;2023-12-22T10:34:55;14.25;;;1.55;;
72611;SDS011;60655;52.182;4.474;2023-12-22T10:37:01;12.18;;;2.38;;
72611;SDS011;60655;52.182;4.474;2023-12-22T10:39:02;16.60;;;1.77;;
72611;SDS011;60655;52.182;4.474;2023-12-22T10:41:03;16.67;;;1.80;;
72611;SDS011;60655;52.182;4.474;2023-12-22T10:43:05;17.30;;;1.90;;
72611;SDS011;60655;52.182;4.474;2023-12-22T10:45:07;13.63;;;1.38;;
72611;SDS011;60655;52.182;4.474;2023-12-22T10:47:08;22.73;;;2.30;;
72611;SDS011;60655;52.182;4.474;2023-12-22T10:49:10;16.00;;;2.15;;
72611;SDS011;60655;52.182;4.474;2023-12-22T10:51:11;12.70;;;1.85;;
72611;SDS011;60655;52.182;4.474;2023-12-22T10:53:12;16.80;;;2.13;;
72611;SDS011;60655;52.182;4.474;2023-12-22T10:55:13;12.27;;;1.70;;
72611;SDS011;60655;52.182;4.474;2023-12-22T10:57:19;19.42;;;1.77;;
72611;SDS011;60655;52.182;4.474;2023-12-22T10:59:22;16.50;;;2.65;;
72611;SDS011;60655;52.182;4.474;2023-12-22T11:01:24;13.10;;;1.85;;
72611;SDS011;60655;52.182;4.474;2023-12-22T11:03:30;11.15;;;1.58;;
72611;SDS011;60655;52.182;4.474;2023-12-22T11:05:34;12.50;;;1.70;;
72611;SDS011;60655;52.182;4.474;2023-12-22T11:07:37;11.02;;;1.63;;
72611;SDS011;60655;52.182;4.474;2023-12-22T11:09:39;12.25;;;1.92;;
72611;SDS011;60655;52.182;4.474;2023-12-22T11:11:45;11.57;;;1.65;;
72611;SDS011;60655;52.182;4.474;2023-12-22T11:13:47;9.55;;;1.73;;
72611;SDS011;60655;52.182;4.474;2023-12-22T11:15:48;14.15;;;1.50;;
72611;SDS011;60655;52.182;4.474;2023-12-22T11:17:51;13.20;;;1.58;;
72611;SDS011;60655;52.182;4.474;2023-12-22T11:19:53;18.50;;;2.17;;
72611;SDS011;60655;52.182;4.474;2023-12-22T11:21:54;17.38;;;2.15;;
72611;SDS011;60655;52.182;4.474;2023-12-22T11:23:58;18.75;;;1.98;;
72611;SDS011;60655;52.182;4.474;2023-12-22T11:25:59;7.07;;;1.10;;
72611;SDS011;60655;52.182;4.474;2023-12-22T11:28:03;14.93;;;1.90;;
72611;SDS011;60655;52.182;4.474;2023-12-22T11:30:06;11.60;;;1.90;;
72611;SDS011;60655;52.182;4.474;2023-12-22T11:32:09;17.40;;;2.00;;
72611;SDS011;60655;52.182;4.474;2023-12-22T11:34:11;14.77;;;1.67;;
72611;SDS011;60655;52.182;4.474;2023-12-22T11:36:15;10.57;;;2.25;;
72611;SDS011;60655;52.182;4.474;2023-12-22T11:38:17;15.57;;;3.05;;
72611;SDS011;60655;52.182;4.474;2023-12-22T11:40:19;13.38;;;2.08;;
72611;SDS011;60655;52.182;4.474;2023-12-22T11:42:23;20.45;;;2.20;;
72611;SDS011;60655;52.182;4.474;2023-12-22T11:44:28;17.13;;;2.28;;
72611;SDS011;60655;52.182;4.474;2023-12-22T11:46:29;13.35;;;2.08;;
72611;SDS011;60655;52.182;4.474;2023-12-22T11:48:31;17.27;;;2.35;;
72611;SDS011;60655;52.182;4.474;2023-12-22T11:50:32;19.15;;;1.85;;
72611;SDS011;60655;52.182;4.474;2023-12-22T11:54:43;15.25;;;1.80;;
72611;SDS011;60655;52.182;4.474;2023-12-22T11:56:48;11.88;;;1.60;;
72611;SDS011;60655;52.182;4.474;2023-12-22T11:58:49;8.07;;;1.23;;
72611;SDS011;60655;52.182;4.474;2023-12-22T12:01:01;12.95;;;1.98;;
72611;SDS011;60655;52.182;4.474;2023-12-22T12:03:07;12.60;;;1.88;;
72611;SDS011;60655;52.182;4.474;2023-12-22T12:05:09;15.50;;;1.98;;
72611;SDS011;60655;52.182;4.474;2023-12-22T12:09:49;16.05;;;1.88;;
72611;SDS011;60655;52.182;4.474;2023-12-22T12:14:00;12.30;;;1.70;;
72611;SDS011;60655;52.182;4.474;2023-12-22T12:16:12;16.33;;;1.65;;
72611;SDS011;60655;52.182;4.474;2023-12-22T12:18:15;9.23;;;1.83;;
72611;SDS011;60655;52.182;4.474;2023-12-22T12:20:16;17.73;;;2.13;;
72611;SDS011;60655;52.182;4.474;2023-12-22T12:22:17;15.77;;;1.80;;
72611;SDS011;60655;52.182;4.474;2023-12-22T12:24:19;19.17;;;2.05;;
72611;SDS011;60655;52.182;4.474;2023-12-22T12:26:19;17.30;;;2.05;;
72611;SDS011;60655;52.182;4.474;2023-12-22T12:28:31;13.70;;;1.83;;
72611;SDS011;60655;52.182;4.474;2023-12-22T12:30:34;15.93;;;1.85;;
72611;SDS011;60655;52.182;4.474;2023-12-22T12:32:37;14.32;;;2.33;;
72611;SDS011;60655;52.182;4.474;2023-12-22T12:34:38;12.85;;;1.98;;
72611;SDS011;60655;52.182;4.474;2023-12-22T12:36:39;17.27;;;2.28;;
72611;SDS011;60655;52.182;4.474;2023-12-22T12:38:58;14.75;;;1.55;;
72611;SDS011;60655;52.182;4.474;2023-12-22T12:41:05;11.75;;;1.63;;
72611;SDS011;60655;52.182;4.474;2023-12-22T12:43:06;16.15;;;2.03;;
72611;SDS011;60655;52.182;4.474;2023-12-22T12:45:07;19.92;;;1.60;;
72611;SDS011;60655;52.182;4.474;2023-12-22T12:47:12;17.63;;;1.63;;
72611;SDS011;60655;52.182;4.474;2023-12-22T12:49:15;11.27;;;2.08;;
72611;SDS011;60655;52.182;4.474;2023-12-22T12:51:16;16.65;;;1.88;;
72611;SDS011;60655;52.182;4.474;2023-12-22T12:53:17;19.88;;;2.20;;
72611;SDS011;60655;52.182;4.474;2023-12-22T12:55:19;14.00;;;1.88;;
72611;SDS011;60655;52.182;4.474;2023-12-22T12:57:21;17.38;;;1.85;;
72611;SDS011;60655;52.182;4.474;2023-12-22T12:59:22;16.63;;;1.80;;
72611;SDS011;60655;52.182;4.474;2023-12-22T13:01:23;15.60;;;1.80;;
72611;SDS011;60655;52.182;4.474;2023-12-22T13:05:25;9.93;;;1.35;;
72611;SDS011;60655;52.182;4.474;2023-12-22T13:07:26;11.82;;;1.92;;
72611;SDS011;60655;52.182;4.474;2023-12-22T13:09:31;17.70;;;1.90;;
72611;SDS011;60655;52.182;4.474;2023-12-22T13:11:34;21.17;;;2.30;;
72611;SDS011;60655;52.182;4.474;2023-12-22T13:13:40;13.23;;;2.20;;
72611;SDS011;60655;52.182;4.474;2023-12-22T13:15:42;13.85;;;2.53;;
72611;SDS011;60655;52.182;4.474;2023-12-22T13:17:43;18.05;;;2.05;;
72611;SDS011;60655;52.182;4.474;2023-12-22T13:19:45;14.82;;;1.92;;
72611;SDS011;60655;52.182;4.474;2023-12-22T13:21:47;13.43;;;1.67;;
72611;SDS011;60655;52.182;4.474;2023-12-22T13:24:03;17.33;;;2.42;;
72611;SDS011;60655;52.182;4.474;2023-12-22T13:26:20;18.25;;;2.13;;
72611;SDS011;60655;52.182;4.474;2023-12-22T13:28:25;16.70;;;2.00;;
72611;SDS011;60655;52.182;4.474;2023-12-22T13:30:37;19.70;;;2.00;;
72611;SDS011;60655;52.182;4.474;2023-12-22T13:32:41;17.90;;;2.13;;
72611;SDS011;60655;52.182;4.474;2023-12-22T13:34:46;13.18;;;2.05;;
72611;SDS011;60655;52.182;4.474;2023-12-22T13:36:52;16.17;;;1.60;;
72611;SDS011;60655;52.182;4.474;2023-12-22T13:38:53;21.90;;;2.38;;
72611;SDS011;60655;52.182;4.474;2023-12-22T13:40:54;15.48;;;1.98;;
72611;SDS011;60655;52.182;4.474;2023-12-22T13:42:56;15.00;;;1.92;;
72611;SDS011;60655;52.182;4.474;2023-12-22T13:45:02;14.45;;;2.40;;
72611;SDS011;60655;52.182;4.474;2023-12-22T13:47:04;14.27;;;2.10;;
72611;SDS011;60655;52.182;4.474;2023-12-22T13:49:05;14.45;;;1.90;;
72611;SDS011;60655;52.182;4.474;2023-12-22T13:51:08;14.35;;;2.03;;
72611;SDS011;60655;52.182;4.474;2023-12-22T13:53:09;15.32;;;1.98;;
72611;SDS011;60655;52.182;4.474;2023-12-22T13:55:14;12.73;;;1.95;;
72611;SDS011;60655;52.182;4.474;2023-12-22T13:57:20;17.95;;;2.25;;
72611;SDS011;60655;52.182;4.474;2023-12-22T13:59:31;22.13;;;2.22;;
72611;SDS011;60655;52.182;4.474;2023-12-22T14:01:33;17.90;;;2.38;;
72611;SDS011;60655;52.182;4.474;2023-12-22T14:03:35;13.57;;;1.85;;
72611;SDS011;60655;52.182;4.474;2023-12-22T14:05:36;17.15;;;2.35;;
72611;SDS011;60655;52.182;4.474;2023-12-22T14:09:37;17.05;;;2.03;;
72611;SDS011;60655;52.182;4.474;2023-12-22T14:11:39;14.75;;;2.33;;
72611;SDS011;60655;52.182;4.474;2023-12-22T14:13:40;14.85;;;1.80;;
72611;SDS011;60655;52.182;4.474;2023-12-22T14:15:41;14.48;;;2.05;;
72611;SDS011;60655;52.182;4.474;2023-12-22T14:17:43;15.88;;;2.15;;
72611;SDS011;60655;52.182;4.474;2023-12-22T14:19:44;13.10;;;2.20;;
72611;SDS011;60655;52.182;4.474;2023-12-22T14:21:45;12.98;;;1.85;;
72611;SDS011;60655;52.182;4.474;2023-12-22T14:23:46;15.55;;;2.15;;
72611;SDS011;60655;52.182;4.474;2023-12-22T14:25:47;15.95;;;2.08;;
72611;SDS011;60655;52.182;4.474;2023-12-22T14:27:48;15.50;;;2.58;;
72611;SDS011;60655;52.182;4.474;2023-12-22T14:29:49;18.98;;;2.20;;
72611;SDS011;60655;52.182;4.474;2023-12-22T14:31:50;22.73;;;2.33;;
72611;SDS011;60655;52.182;4.474;2023-12-22T14:33:52;18.23;;;2.15;;
72611;SDS011;60655;52.182;4.474;2023-12-22T14:35:53;22.02;;;2.90;;
72611;SDS011;60655;52.182;4.474;2023-12-22T14:37:54;14.93;;;2.08;;
72611;SDS011;60655;52.182;4.474;2023-12-22T14:39:55;15.40;;;2.00;;
72611;SDS011;60655;52.182;4.474;2023-12-22T14:41:56;21.30;;;2.92;;
72611;SDS011;60655;52.182;4.474;2023-12-22T14:43:57;10.85;;;2.00;;
72611;SDS011;60655;52.182;4.474;2023-12-22T14:45:58;14.38;;;1.85;;
72611;SDS011;60655;52.182;4.474;2023-12-22T14:47:59;16.67;;;2.17;;
72611;SDS011;60655;52.182;4.474;2023-12-22T14:49:59;14.57;;;2.13;;
72611;SDS011;60655;52.182;4.474;2023-12-22T14:52:04;18.80;;;2.35;;
72611;SDS011;60655;52.182;4.474;2023-12-22T14:54:05;16.67;;;2.38;;
72611;SDS011;60655;52.182;4.474;2023-12-22T14:56:06;19.05;;;2.13;;
72611;SDS011;60655;52.182;4.474;2023-12-22T14:58:08;17.40;;;2.15;;
72611;SDS011;60655;52.182;4.474;2023-12-22T15:00:10;14.15;;;1.85;;
72611;SDS011;60655;52.182;4.474;2023-12-22T15:02:12;21.80;;;2.63;;
72611;SDS011;60655;52.182;4.474;2023-12-22T15:04:13;17.08;;;2.38;;
72611;SDS011;60655;52.182;4.474;2023-12-22T15:06:14;18.55;;;2.13;;
72611;SDS011;60655;52.182;4.474;2023-12-22T15:08:15;12.85;;;1.73;;
72611;SDS011;60655;52.182;4.474;2023-12-22T15:10:15;12.73;;;2.80;;
72611;SDS011;60655;52.182;4.474;2023-12-22T15:12:16;14.82;;;2.78;;
72611;SDS011;60655;52.182;4.474;2023-12-22T15:14:17;17.48;;;2.38;;
72611;SDS011;60655;52.182;4.474;2023-12-22T15:16:19;17.65;;;2.10;;
72611;SDS011;60655;52.182;4.474;2023-12-22T15:18:20;18.10;;;2.30;;
72611;SDS011;60655;52.182;4.474;2023-12-22T15:20:21;23.67;;;2.83;;
72611;SDS011;60655;52.182;4.474;2023-12-22T15:22:22;16.80;;;2.25;;